sensor_id;sensor_type;location;lat;lon;timestamp;P1;durP1;ratioP1;P2;durP2;ratioP2
35897;SDS011;21997;47.118;15.346;2023-02-01T00:00:08;8.40;;;5.73;;
35897;SDS011;21997;47.118;15.346;2023-02-01T00:02:34;13.23;;;6.37;;
35897;SDS011;21997;47.118;15.346;2023-02-01T00:05:04;9.50;;;5.50;;
35897;SDS011;21997;47.118;15.346;2023-02-01T00:07:30;10.63;;;5.47;;
35897;SDS011;21997;47.118;15.346;2023-02-01T00:09:56;9.97;;;5.87;;
35897;SDS011;21997;47.118;15.346;2023-02-01T00:12:21;11.57;;;5.50;;
35897;SDS011;21997;47.118;15.346;2023-02-01T00:14:46;11.83;;;6.23;;
35897;SDS011;21997;47.118;15.346;2023-02-01T00:17:13;12.23;;;6.23;;
35897;SDS011;21997;47.118;15.346;2023-02-01T00:19:39;12.17;;;5.57;;
35897;SDS011;21997;47.118;15.346;2023-02-01T00:22:04;10.03;;;5.33;;
35897;SDS011;21997;47.118;15.346;2023-02-01T00:24:29;9.87;;;6.13;;
35897;SDS011;21997;47.118;15.346;2023-02-01T00:26:55;9.63;;;5.67;;
35897;SDS011;21997;47.118;15.346;2023-02-01T00:29:20;18.20;;;6.57;;
35897;SDS011;21997;47.118;15.346;2023-02-01T00:31:46;9.17;;;5.30;;
35897;SDS011;21997;47.118;15.346;2023-02-01T00:34:13;12.97;;;6.57;;
35897;SDS011;21997;47.118;15.346;2023-02-01T00:36:40;13.63;;;5.83;;
35897;SDS011;21997;47.118;15.346;2023-02-01T00:39:06;9.27;;;6.17;;
35897;SDS011;21997;47.118;15.346;2023-02-01T00:41:32;12.53;;;6.23;;
35897;SDS011;21997;47.118;15.346;2023-02-01T00:43:57;12.10;;;5.50;;
35897;SDS011;21997;47.118;15.346;2023-02-01T00:46:23;11.10;;;6.00;;
35897;SDS011;21997;47.118;15.346;2023-02-01T00:48:49;13.20;;;5.57;;
35897;SDS011;21997;47.118;15.346;2023-02-01T00:51:16;11.60;;;6.80;;
35897;SDS011;21997;47.118;15.346;2023-02-01T00:53:43;9.90;;;5.53;;
35897;SDS011;21997;47.118;15.346;2023-02-01T00:56:09;10.53;;;5.20;;
35897;SDS011;21997;47.118;15.346;2023-02-01T00:58:35;8.03;;;4.93;;
35897;SDS011;21997;47.118;15.346;2023-02-01T01:01:01;7.40;;;4.10;;
35897;SDS011;21997;47.118;15.346;2023-02-01T01:03:31;7.23;;;4.63;;
35897;SDS011;21997;47.118;15.346;2023-02-01T01:05:58;8.37;;;4.40;;
35897;SDS011;21997;47.118;15.346;2023-02-01T01:08:24;8.90;;;5.07;;
35897;SDS011;21997;47.118;15.346;2023-02-01T01:10:50;7.30;;;4.33;;
35897;SDS011;21997;47.118;15.346;2023-02-01T01:13:15;7.00;;;4.40;;
35897;SDS011;21997;47.118;15.346;2023-02-01T01:15:41;11.57;;;5.20;;
35897;SDS011;21997;47.118;15.346;2023-02-01T01:18:07;7.77;;;4.80;;
35897;SDS011;21997;47.118;15.346;2023-02-01T01:20:34;10.57;;;5.57;;
35897;SDS011;21997;47.118;15.346;2023-02-01T01:23:00;7.67;;;4.50;;
35897;SDS011;21997;47.118;15.346;2023-02-01T01:25:25;8.30;;;5.03;;
35897;SDS011;21997;47.118;15.346;2023-02-01T01:27:52;9.17;;;5.00;;
35897;SDS011;21997;47.118;15.346;2023-02-01T01:30:17;10.00;;;4.57;;
35897;SDS011;21997;47.118;15.346;2023-02-01T01:32:43;9.57;;;4.93;;
35897;SDS011;21997;47.118;15.346;2023-02-01T01:35:08;6.40;;;4.20;;
35897;SDS011;21997;47.118;15.346;2023-02-01T01:37:34;6.60;;;4.83;;
35897;SDS011;21997;47.118;15.346;2023-02-01T01:40:01;9.20;;;4.60;;
35897;SDS011;21997;47.118;15.346;2023-02-01T01:42:28;7.37;;;4.70;;
35897;SDS011;21997;47.118;15.346;2023-02-01T01:47:19;8.67;;;4.97;;
35897;SDS011;21997;47.118;15.346;2023-02-01T01:49:44;10.20;;;5.77;;
35897;SDS011;21997;47.118;15.346;2023-02-01T01:52:10;11.37;;;4.90;;
35897;SDS011;21997;47.118;15.346;2023-02-01T01:54:40;7.60;;;4.43;;
35897;SDS011;21997;47.118;15.346;2023-02-01T01:57:11;8.40;;;4.40;;
35897;SDS011;21997;47.118;15.346;2023-02-01T02:00:08;7.53;;;3.67;;
35897;SDS011;21997;47.118;15.346;2023-02-01T02:02:36;6.17;;;4.17;;
35897;SDS011;21997;47.118;15.346;2023-02-01T02:05:02;8.43;;;4.37;;
35897;SDS011;21997;47.118;15.346;2023-02-01T02:07:30;6.93;;;4.03;;
35897;SDS011;21997;47.118;15.346;2023-02-01T02:09:57;6.27;;;3.60;;
35897;SDS011;21997;47.118;15.346;2023-02-01T02:12:22;5.87;;;4.20;;
35897;SDS011;21997;47.118;15.346;2023-02-01T02:14:48;7.20;;;4.27;;
35897;SDS011;21997;47.118;15.346;2023-02-01T02:17:23;9.53;;;3.80;;
35897;SDS011;21997;47.118;15.346;2023-02-01T02:39:28;9.17;;;4.37;;
35897;SDS011;21997;47.118;15.346;2023-02-01T02:44:43;7.80;;;3.87;;
35897;SDS011;21997;47.118;15.346;2023-02-01T02:47:45;10.17;;;4.47;;
35897;SDS011;21997;47.118;15.346;2023-02-01T02:50:24;6.93;;;3.97;;
35897;SDS011;21997;47.118;15.346;2023-02-01T02:53:33;8.30;;;4.80;;
35897;SDS011;21997;47.118;15.346;2023-02-01T02:56:15;8.13;;;4.53;;
35897;SDS011;21997;47.118;15.346;2023-02-01T02:59:00;7.33;;;4.17;;
35897;SDS011;21997;47.118;15.346;2023-02-01T03:01:46;6.10;;;3.60;;
35897;SDS011;21997;47.118;15.346;2023-02-01T03:04:30;7.47;;;3.70;;
35897;SDS011;21997;47.118;15.346;2023-02-01T03:06:56;5.03;;;3.70;;
35897;SDS011;21997;47.118;15.346;2023-02-01T03:09:31;5.07;;;3.53;;
35897;SDS011;21997;47.118;15.346;2023-02-01T03:12:04;7.97;;;3.87;;
35897;SDS011;21997;47.118;15.346;2023-02-01T03:14:54;6.57;;;3.37;;
35897;SDS011;21997;47.118;15.346;2023-02-01T03:17:25;5.13;;;3.20;;
35897;SDS011;21997;47.118;15.346;2023-02-01T03:19:55;6.30;;;4.20;;
35897;SDS011;21997;47.118;15.346;2023-02-01T03:22:25;7.30;;;4.57;;
35897;SDS011;21997;47.118;15.346;2023-02-01T03:27:27;6.23;;;3.23;;
35897;SDS011;21997;47.118;15.346;2023-02-01T03:32:43;5.70;;;3.77;;
35897;SDS011;21997;47.118;15.346;2023-02-01T03:35:32;6.60;;;3.47;;
35897;SDS011;21997;47.118;15.346;2023-02-01T03:41:06;5.10;;;3.67;;
35897;SDS011;21997;47.118;15.346;2023-02-01T03:46:35;6.00;;;3.90;;
35897;SDS011;21997;47.118;15.346;2023-02-01T03:49:08;9.37;;;3.87;;
35897;SDS011;21997;47.118;15.346;2023-02-01T03:51:35;5.70;;;3.57;;
35897;SDS011;21997;47.118;15.346;2023-02-01T03:54:03;9.67;;;4.60;;
35897;SDS011;21997;47.118;15.346;2023-02-01T03:56:30;8.13;;;4.37;;
35897;SDS011;21997;47.118;15.346;2023-02-01T03:58:56;7.87;;;4.30;;
35897;SDS011;21997;47.118;15.346;2023-02-01T04:01:28;8.07;;;4.13;;
35897;SDS011;21997;47.118;15.346;2023-02-01T04:03:55;7.53;;;3.93;;
35897;SDS011;21997;47.118;15.346;2023-02-01T04:06:21;8.53;;;3.80;;
35897;SDS011;21997;47.118;15.346;2023-02-01T04:08:46;5.33;;;3.70;;
35897;SDS011;21997;47.118;15.346;2023-02-01T04:11:13;8.47;;;4.07;;
35897;SDS011;21997;47.118;15.346;2023-02-01T04:13:38;9.00;;;3.80;;
35897;SDS011;21997;47.118;15.346;2023-02-01T04:16:04;5.50;;;3.73;;
35897;SDS011;21997;47.118;15.346;2023-02-01T04:18:30;9.90;;;5.13;;
35897;SDS011;21997;47.118;15.346;2023-02-01T04:20:55;28.17;;;14.87;;
35897;SDS011;21997;47.118;15.346;2023-02-01T04:23:21;18.13;;;10.27;;
35897;SDS011;21997;47.118;15.346;2023-02-01T04:25:46;11.47;;;7.60;;
35897;SDS011;21997;47.118;15.346;2023-02-01T04:28:11;8.43;;;5.47;;
35897;SDS011;21997;47.118;15.346;2023-02-01T04:30:37;5.50;;;4.27;;
35897;SDS011;21997;47.118;15.346;2023-02-01T04:33:02;5.83;;;3.77;;
35897;SDS011;21997;47.118;15.346;2023-02-01T04:35:31;6.43;;;4.20;;
35897;SDS011;21997;47.118;15.346;2023-02-01T04:37:56;7.90;;;4.33;;
35897;SDS011;21997;47.118;15.346;2023-02-01T04:40:21;7.00;;;5.07;;
35897;SDS011;21997;47.118;15.346;2023-02-01T04:42:47;8.27;;;5.17;;
35897;SDS011;21997;47.118;15.346;2023-02-01T04:45:12;10.63;;;5.80;;
35897;SDS011;21997;47.118;15.346;2023-02-01T04:47:38;8.53;;;4.30;;
35897;SDS011;21997;47.118;15.346;2023-02-01T04:50:03;9.03;;;6.57;;
35897;SDS011;21997;47.118;15.346;2023-02-01T04:52:30;15.17;;;7.53;;
35897;SDS011;21997;47.118;15.346;2023-02-01T04:54:56;12.30;;;8.27;;
35897;SDS011;21997;47.118;15.346;2023-02-01T04:57:24;11.00;;;4.93;;
35897;SDS011;21997;47.118;15.346;2023-02-01T04:59:50;16.17;;;10.73;;
35897;SDS011;21997;47.118;15.346;2023-02-01T05:02:15;14.73;;;11.20;;
35897;SDS011;21997;47.118;15.346;2023-02-01T05:04:40;11.77;;;8.40;;
35897;SDS011;21997;47.118;15.346;2023-02-01T05:07:06;11.40;;;7.47;;
35897;SDS011;21997;47.118;15.346;2023-02-01T05:09:31;15.13;;;8.60;;
35897;SDS011;21997;47.118;15.346;2023-02-01T05:11:57;12.30;;;8.90;;
35897;SDS011;21997;47.118;15.346;2023-02-01T05:14:40;15.40;;;8.57;;
35897;SDS011;21997;47.118;15.346;2023-02-01T05:17:06;14.47;;;9.20;;
35897;SDS011;21997;47.118;15.346;2023-02-01T05:19:31;16.30;;;8.97;;
35897;SDS011;21997;47.118;15.346;2023-02-01T05:21:57;12.83;;;7.97;;
35897;SDS011;21997;47.118;15.346;2023-02-01T05:24:22;16.73;;;7.43;;
35897;SDS011;21997;47.118;15.346;2023-02-01T05:26:48;11.43;;;7.40;;
35897;SDS011;21997;47.118;15.346;2023-02-01T05:29:14;17.10;;;8.13;;
35897;SDS011;21997;47.118;15.346;2023-02-01T05:31:40;10.37;;;6.73;;
35897;SDS011;21997;47.118;15.346;2023-02-01T05:34:06;14.63;;;7.73;;
35897;SDS011;21997;47.118;15.346;2023-02-01T05:36:31;21.20;;;9.17;;
35897;SDS011;21997;47.118;15.346;2023-02-01T05:38:57;160.90;;;56.03;;
35897;SDS011;21997;47.118;15.346;2023-02-01T05:41:24;43.17;;;21.60;;
35897;SDS011;21997;47.118;15.346;2023-02-01T05:43:50;22.93;;;11.70;;
35897;SDS011;21997;47.118;15.346;2023-02-01T05:46:15;19.13;;;9.67;;
35897;SDS011;21997;47.118;15.346;2023-02-01T05:48:41;31.87;;;14.47;;
35897;SDS011;21997;47.118;15.346;2023-02-01T05:51:08;32.27;;;15.87;;
35897;SDS011;21997;47.118;15.346;2023-02-01T05:53:34;35.67;;;14.60;;
35897;SDS011;21997;47.118;15.346;2023-02-01T05:56:00;27.63;;;14.27;;
35897;SDS011;21997;47.118;15.346;2023-02-01T05:58:25;30.90;;;14.27;;
35897;SDS011;21997;47.118;15.346;2023-02-01T06:00:51;18.07;;;8.73;;
35897;SDS011;21997;47.118;15.346;2023-02-01T06:03:16;12.97;;;7.40;;
35897;SDS011;21997;47.118;15.346;2023-02-01T06:05:45;12.93;;;6.33;;
35897;SDS011;21997;47.118;15.346;2023-02-01T06:08:11;15.73;;;6.33;;
35897;SDS011;21997;47.118;15.346;2023-02-01T06:10:37;13.87;;;6.10;;
35897;SDS011;21997;47.118;15.346;2023-02-01T06:13:03;17.27;;;9.20;;
35897;SDS011;21997;47.118;15.346;2023-02-01T06:15:29;17.47;;;9.23;;
35897;SDS011;21997;47.118;15.346;2023-02-01T06:17:54;17.40;;;9.50;;
35897;SDS011;21997;47.118;15.346;2023-02-01T06:20:20;15.50;;;8.17;;
35897;SDS011;21997;47.118;15.346;2023-02-01T06:22:46;11.60;;;8.13;;
35897;SDS011;21997;47.118;15.346;2023-02-01T06:25:11;15.47;;;8.63;;
35897;SDS011;21997;47.118;15.346;2023-02-01T06:27:37;12.03;;;8.20;;
35897;SDS011;21997;47.118;15.346;2023-02-01T06:30:04;13.50;;;8.90;;
35897;SDS011;21997;47.118;15.346;2023-02-01T06:32:31;13.20;;;7.83;;
35897;SDS011;21997;47.118;15.346;2023-02-01T06:34:56;36.53;;;19.03;;
35897;SDS011;21997;47.118;15.346;2023-02-01T06:37:22;62.37;;;31.03;;
35897;SDS011;21997;47.118;15.346;2023-02-01T06:39:49;49.30;;;24.77;;
35897;SDS011;21997;47.118;15.346;2023-02-01T06:42:15;29.93;;;17.93;;
35897;SDS011;21997;47.118;15.346;2023-02-01T06:44:40;26.60;;;14.20;;
35897;SDS011;21997;47.118;15.346;2023-02-01T06:47:06;18.67;;;11.00;;
35897;SDS011;21997;47.118;15.346;2023-02-01T06:49:31;18.87;;;10.73;;
35897;SDS011;21997;47.118;15.346;2023-02-01T06:51:57;18.17;;;11.03;;
35897;SDS011;21997;47.118;15.346;2023-02-01T06:54:25;13.83;;;8.07;;
35897;SDS011;21997;47.118;15.346;2023-02-01T06:56:50;14.67;;;9.60;;
35897;SDS011;21997;47.118;15.346;2023-02-01T06:59:16;15.60;;;9.20;;
35897;SDS011;21997;47.118;15.346;2023-02-01T07:01:41;13.53;;;7.70;;
35897;SDS011;21997;47.118;15.346;2023-02-01T07:04:08;11.47;;;7.60;;
35897;SDS011;21997;47.118;15.346;2023-02-01T07:06:35;14.87;;;8.20;;
35897;SDS011;21997;47.118;15.346;2023-02-01T07:09:00;11.40;;;7.63;;
35897;SDS011;21997;47.118;15.346;2023-02-01T07:11:26;12.27;;;6.97;;
35897;SDS011;21997;47.118;15.346;2023-02-01T07:13:53;14.80;;;8.43;;
35897;SDS011;21997;47.118;15.346;2023-02-01T07:16:19;12.37;;;7.63;;
35897;SDS011;21997;47.118;15.346;2023-02-01T07:18:45;11.70;;;7.83;;
35897;SDS011;21997;47.118;15.346;2023-02-01T07:21:11;12.80;;;7.53;;
35897;SDS011;21997;47.118;15.346;2023-02-01T07:23:36;13.17;;;7.33;;
35897;SDS011;21997;47.118;15.346;2023-02-01T07:26:03;11.07;;;6.80;;
35897;SDS011;21997;47.118;15.346;2023-02-01T07:28:30;10.23;;;7.00;;
35897;SDS011;21997;47.118;15.346;2023-02-01T07:31:03;12.10;;;7.50;;
35897;SDS011;21997;47.118;15.346;2023-02-01T07:33:30;12.60;;;7.80;;
35897;SDS011;21997;47.118;15.346;2023-02-01T07:35:55;12.67;;;7.60;;
35897;SDS011;21997;47.118;15.346;2023-02-01T07:38:21;11.80;;;8.20;;
35897;SDS011;21997;47.118;15.346;2023-02-01T07:40:48;11.37;;;8.47;;
35897;SDS011;21997;47.118;15.346;2023-02-01T07:43:14;12.57;;;7.70;;
35897;SDS011;21997;47.118;15.346;2023-02-01T07:45:39;18.10;;;10.23;;
35897;SDS011;21997;47.118;15.346;2023-02-01T07:48:05;18.73;;;10.57;;
35897;SDS011;21997;47.118;15.346;2023-02-01T07:50:30;21.47;;;11.57;;
35897;SDS011;21997;47.118;15.346;2023-02-01T07:52:58;23.60;;;13.60;;
35897;SDS011;21997;47.118;15.346;2023-02-01T07:55:24;26.07;;;15.53;;
35897;SDS011;21997;47.118;15.346;2023-02-01T07:57:50;19.90;;;11.27;;
35897;SDS011;21997;47.118;15.346;2023-02-01T08:00:15;19.00;;;8.00;;
35897;SDS011;21997;47.118;15.346;2023-02-01T08:03:00;13.03;;;8.07;;
35897;SDS011;21997;47.118;15.346;2023-02-01T08:05:25;12.17;;;8.40;;
35897;SDS011;21997;47.118;15.346;2023-02-01T08:07:51;14.03;;;8.17;;
35897;SDS011;21997;47.118;15.346;2023-02-01T08:10:17;14.23;;;9.47;;
35897;SDS011;21997;47.118;15.346;2023-02-01T08:12:43;14.37;;;8.77;;
35897;SDS011;21997;47.118;15.346;2023-02-01T08:15:12;17.77;;;10.20;;
35897;SDS011;21997;47.118;15.346;2023-02-01T08:17:39;12.10;;;7.63;;
35897;SDS011;21997;47.118;15.346;2023-02-01T08:20:04;13.50;;;7.73;;
35897;SDS011;21997;47.118;15.346;2023-02-01T08:22:33;15.33;;;7.33;;
35897;SDS011;21997;47.118;15.346;2023-02-01T08:24:59;13.63;;;7.23;;
35897;SDS011;21997;47.118;15.346;2023-02-01T08:27:26;12.30;;;8.07;;
35897;SDS011;21997;47.118;15.346;2023-02-01T08:29:52;9.77;;;7.47;;
35897;SDS011;21997;47.118;15.346;2023-02-01T08:32:19;9.23;;;6.53;;
35897;SDS011;21997;47.118;15.346;2023-02-01T08:34:44;9.83;;;6.30;;
35897;SDS011;21997;47.118;15.346;2023-02-01T08:37:09;11.20;;;6.97;;
35897;SDS011;21997;47.118;15.346;2023-02-01T08:39:35;11.00;;;6.03;;
35897;SDS011;21997;47.118;15.346;2023-02-01T08:42:01;9.33;;;6.60;;
35897;SDS011;21997;47.118;15.346;2023-02-01T08:44:45;7.80;;;5.10;;
35897;SDS011;21997;47.118;15.346;2023-02-01T08:47:10;8.17;;;6.47;;
35897;SDS011;21997;47.118;15.346;2023-02-01T08:49:36;5.90;;;4.33;;
35897;SDS011;21997;47.118;15.346;2023-02-01T08:52:02;12.07;;;7.43;;
35897;SDS011;21997;47.118;15.346;2023-02-01T08:54:27;7.73;;;5.33;;
35897;SDS011;21997;47.118;15.346;2023-02-01T08:56:53;9.20;;;5.97;;
35897;SDS011;21997;47.118;15.346;2023-02-01T08:59:19;9.67;;;6.73;;
35897;SDS011;21997;47.118;15.346;2023-02-01T09:01:45;7.43;;;5.20;;
35897;SDS011;21997;47.118;15.346;2023-02-01T09:04:10;9.20;;;6.30;;
35897;SDS011;21997;47.118;15.346;2023-02-01T09:06:35;8.87;;;5.60;;
35897;SDS011;21997;47.118;15.346;2023-02-01T09:09:01;5.97;;;3.70;;
35897;SDS011;21997;47.118;15.346;2023-02-01T09:11:26;3.83;;;2.93;;
35897;SDS011;21997;47.118;15.346;2023-02-01T09:13:51;5.63;;;3.43;;
35897;SDS011;21997;47.118;15.346;2023-02-01T09:16:17;9.50;;;4.53;;
35897;SDS011;21997;47.118;15.346;2023-02-01T09:18:42;7.37;;;4.20;;
35897;SDS011;21997;47.118;15.346;2023-02-01T09:21:08;14.70;;;5.23;;
35897;SDS011;21997;47.118;15.346;2023-02-01T09:23:34;13.73;;;4.70;;
35897;SDS011;21997;47.118;15.346;2023-02-01T09:26:00;6.77;;;3.73;;
35897;SDS011;21997;47.118;15.346;2023-02-01T09:28:26;12.80;;;5.40;;
35897;SDS011;21997;47.118;15.346;2023-02-01T09:30:56;9.90;;;3.70;;
35897;SDS011;21997;47.118;15.346;2023-02-01T09:33:22;5.90;;;3.50;;
35897;SDS011;21997;47.118;15.346;2023-02-01T09:35:49;5.40;;;3.37;;
35897;SDS011;21997;47.118;15.346;2023-02-01T09:38:14;4.87;;;3.40;;
35897;SDS011;21997;47.118;15.346;2023-02-01T09:40:40;12.00;;;5.53;;
35897;SDS011;21997;47.118;15.346;2023-02-01T09:48:20;7.97;;;4.70;;
35897;SDS011;21997;47.118;15.346;2023-02-01T09:50:49;7.80;;;3.93;;
35897;SDS011;21997;47.118;15.346;2023-02-01T09:56:00;8.80;;;5.17;;
35897;SDS011;21997;47.118;15.346;2023-02-01T09:58:41;7.23;;;3.70;;
35897;SDS011;21997;47.118;15.346;2023-02-01T10:01:17;7.13;;;3.30;;
35897;SDS011;21997;47.118;15.346;2023-02-01T10:03:47;8.57;;;4.20;;
35897;SDS011;21997;47.118;15.346;2023-02-01T10:17:45;7.60;;;3.60;;
35897;SDS011;21997;47.118;15.346;2023-02-01T10:20:29;5.00;;;3.50;;
35897;SDS011;21997;47.118;15.346;2023-02-01T10:28:07;12.77;;;5.25;;
35897;SDS011;21997;47.118;15.346;2023-02-01T10:30:45;7.38;;;3.88;;
35897;SDS011;21997;47.118;15.346;2023-02-01T10:33:25;6.00;;;3.17;;
35897;SDS011;21997;47.118;15.346;2023-02-01T10:36:04;4.00;;;2.00;;
35897;SDS011;21997;47.118;15.346;2023-02-01T10:38:37;5.03;;;3.85;;
35897;SDS011;21997;47.118;15.346;2023-02-01T10:41:04;5.82;;;3.88;;
35897;SDS011;21997;47.118;15.346;2023-02-01T10:43:35;7.40;;;3.60;;
35897;SDS011;21997;47.118;15.346;2023-02-01T10:46:01;9.63;;;3.72;;
35897;SDS011;21997;47.118;15.346;2023-02-01T10:48:26;6.75;;;4.47;;
35897;SDS011;21997;47.118;15.346;2023-02-01T10:50:59;10.38;;;4.57;;
35897;SDS011;21997;47.118;15.346;2023-02-01T10:56:34;4.55;;;2.15;;
35897;SDS011;21997;47.118;15.346;2023-02-01T10:59:03;2.22;;;1.70;;
35897;SDS011;21997;47.118;15.346;2023-02-01T11:01:31;1.40;;;1.10;;
35897;SDS011;21997;47.118;15.346;2023-02-01T11:04:03;2.95;;;1.00;;
35897;SDS011;21997;47.118;15.346;2023-02-01T11:06:37;1.92;;;1.10;;
35897;SDS011;21997;47.118;15.346;2023-02-01T11:12:10;1.20;;;0.70;;
35897;SDS011;21997;47.118;15.346;2023-02-01T11:14:28;0.80;;;0.60;;
35897;SDS011;21997;47.118;15.346;2023-02-01T11:17:00;1.63;;;1.00;;
35897;SDS011;21997;47.118;15.346;2023-02-01T11:19:28;0.88;;;0.50;;
35897;SDS011;21997;47.118;15.346;2023-02-01T11:21:54;3.03;;;0.57;;
35897;SDS011;21997;47.118;15.346;2023-02-01T11:24:29;0.60;;;0.50;;
35897;SDS011;21997;47.118;15.346;2023-02-01T11:26:58;0.80;;;0.60;;
35897;SDS011;21997;47.118;15.346;2023-02-01T11:29:25;1.38;;;0.70;;
35897;SDS011;21997;47.118;15.346;2023-02-01T11:31:55;0.77;;;0.60;;
35897;SDS011;21997;47.118;15.346;2023-02-01T11:34:22;1.63;;;0.60;;
35897;SDS011;21997;47.118;15.346;2023-02-01T11:36:50;3.92;;;1.13;;
35897;SDS011;21997;47.118;15.346;2023-02-01T11:44:39;5.63;;;0.60;;
35897;SDS011;21997;47.118;15.346;2023-02-01T11:47:18;1.17;;;0.10;;
35897;SDS011;21997;47.118;15.346;2023-02-01T11:49:55;0.20;;;0.10;;
35897;SDS011;21997;47.118;15.346;2023-02-01T11:58:04;0.28;;;0.10;;
35897;SDS011;21997;47.118;15.346;2023-02-01T12:00:45;1.77;;;0.10;;
35897;SDS011;21997;47.118;15.346;2023-02-01T12:09:00;0.73;;;0.20;;
35897;SDS011;21997;47.118;15.346;2023-02-01T12:11:38;0.82;;;0.47;;
35897;SDS011;21997;47.118;15.346;2023-02-01T12:32:51;0.73;;;0.30;;
35897;SDS011;21997;47.118;15.346;2023-02-01T12:46:21;3.33;;;0.20;;
35897;SDS011;21997;47.118;15.346;2023-02-01T12:48:51;7.78;;;0.60;;
35897;SDS011;21997;47.118;15.346;2023-02-01T12:51:27;0.38;;;0.22;;
35897;SDS011;21997;47.118;15.346;2023-02-01T12:53:57;0.20;;;0.20;;
35897;SDS011;21997;47.118;15.346;2023-02-01T12:56:28;0.20;;;0.20;;
35897;SDS011;21997;47.118;15.346;2023-02-01T12:59:00;0.32;;;0.25;;
35897;SDS011;21997;47.118;15.346;2023-02-01T13:01:39;0.93;;;0.20;;
35897;SDS011;21997;47.118;15.346;2023-02-01T13:04:20;2.60;;;0.20;;
35897;SDS011;21997;47.118;15.346;2023-02-01T13:06:52;1.45;;;0.20;;
35897;SDS011;21997;47.118;15.346;2023-02-01T13:09:45;0.38;;;0.38;;
35897;SDS011;21997;47.118;15.346;2023-02-01T13:12:13;0.38;;;0.30;;
35897;SDS011;21997;47.118;15.346;2023-02-01T13:17:26;5.97;;;1.02;;
35897;SDS011;21997;47.118;15.346;2023-02-01T13:20:03;1.83;;;0.20;;
35897;SDS011;21997;47.118;15.346;2023-02-01T13:22:39;0.73;;;0.30;;
35897;SDS011;21997;47.118;15.346;2023-02-01T13:25:13;0.57;;;0.40;;
35897;SDS011;21997;47.118;15.346;2023-02-01T13:27:42;0.40;;;0.20;;
35897;SDS011;21997;47.118;15.346;2023-02-01T13:30:13;1.13;;;0.30;;
35897;SDS011;21997;47.118;15.346;2023-02-01T13:38:33;0.75;;;0.20;;
35897;SDS011;21997;47.118;15.346;2023-02-01T13:41:27;0.30;;;0.22;;
35897;SDS011;21997;47.118;15.346;2023-02-01T13:43:56;0.65;;;0.20;;
35897;SDS011;21997;47.118;15.346;2023-02-01T13:46:42;0.10;;;0.10;;
35897;SDS011;21997;47.118;15.346;2023-02-01T13:49:18;1.38;;;0.73;;
35897;SDS011;21997;47.118;15.346;2023-02-01T13:51:56;0.10;;;0.10;;
35897;SDS011;21997;47.118;15.346;2023-02-01T13:54:36;0.32;;;0.20;;
35897;SDS011;21997;47.118;15.346;2023-02-01T13:57:04;3.13;;;0.30;;
35897;SDS011;21997;47.118;15.346;2023-02-01T14:05:08;0.55;;;0.30;;
35897;SDS011;21997;47.118;15.346;2023-02-01T14:07:35;0.10;;;0.10;;
35897;SDS011;21997;47.118;15.346;2023-02-01T14:13:05;0.60;;;0.20;;
35897;SDS011;21997;47.118;15.346;2023-02-01T14:15:39;3.47;;;0.40;;
35897;SDS011;21997;47.118;15.346;2023-02-01T14:18:56;4.35;;;0.50;;
35897;SDS011;21997;47.118;15.346;2023-02-01T14:23:40;0.50;;;0.30;;
35897;SDS011;21997;47.118;15.346;2023-02-01T14:26:08;0.57;;;0.50;;
35897;SDS011;21997;47.118;15.346;2023-02-01T14:28:36;2.07;;;0.50;;
35897;SDS011;21997;47.118;15.346;2023-02-01T14:31:28;0.20;;;0.20;;
35897;SDS011;21997;47.118;15.346;2023-02-01T14:34:16;0.50;;;0.30;;
35897;SDS011;21997;47.118;15.346;2023-02-01T14:37:05;0.63;;;0.40;;
35897;SDS011;21997;47.118;15.346;2023-02-01T14:39:36;0.40;;;0.40;;
35897;SDS011;21997;47.118;15.346;2023-02-01T14:42:16;7.90;;;0.60;;
35897;SDS011;21997;47.118;15.346;2023-02-01T14:44:44;0.30;;;0.30;;
35897;SDS011;21997;47.118;15.346;2023-02-01T14:47:11;1.13;;;0.70;;
35897;SDS011;21997;47.118;15.346;2023-02-01T14:49:59;2.63;;;0.40;;
35897;SDS011;21997;47.118;15.346;2023-02-01T14:52:49;1.20;;;0.27;;
35897;SDS011;21997;47.118;15.346;2023-02-01T15:00:55;1.80;;;0.30;;
35897;SDS011;21997;47.118;15.346;2023-02-01T15:06:27;0.20;;;0.20;;
35897;SDS011;21997;47.118;15.346;2023-02-01T15:09:11;0.33;;;0.30;;
35897;SDS011;21997;47.118;15.346;2023-02-01T15:11:55;0.23;;;0.13;;
35897;SDS011;21997;47.118;15.346;2023-02-01T15:14:32;1.00;;;0.80;;
35897;SDS011;21997;47.118;15.346;2023-02-01T15:17:00;0.70;;;0.53;;
35897;SDS011;21997;47.118;15.346;2023-02-01T15:19:27;0.43;;;0.30;;
35897;SDS011;21997;47.118;15.346;2023-02-01T15:21:54;0.60;;;0.30;;
35897;SDS011;21997;47.118;15.346;2023-02-01T15:26:51;1.07;;;0.80;;
35897;SDS011;21997;47.118;15.346;2023-02-01T15:29:17;1.83;;;1.07;;
35897;SDS011;21997;47.118;15.346;2023-02-01T15:31:48;1.47;;;0.70;;
35897;SDS011;21997;47.118;15.346;2023-02-01T15:34:14;1.47;;;1.07;;
35897;SDS011;21997;47.118;15.346;2023-02-01T15:36:41;2.33;;;0.60;;
35897;SDS011;21997;47.118;15.346;2023-02-01T15:41:52;0.67;;;0.60;;
35897;SDS011;21997;47.118;15.346;2023-02-01T15:44:30;0.93;;;0.47;;
35897;SDS011;21997;47.118;15.346;2023-02-01T15:47:06;4.07;;;1.90;;
35897;SDS011;21997;47.118;15.346;2023-02-01T15:49:42;5.93;;;2.70;;
35897;SDS011;21997;47.118;15.346;2023-02-01T15:52:32;5.60;;;2.90;;
35897;SDS011;21997;47.118;15.346;2023-02-01T15:55:02;3.07;;;1.93;;
35897;SDS011;21997;47.118;15.346;2023-02-01T15:57:33;4.37;;;0.87;;
35897;SDS011;21997;47.118;15.346;2023-02-01T16:00:02;1.97;;;0.60;;
35897;SDS011;21997;47.118;15.346;2023-02-01T16:02:54;1.17;;;0.50;;
35897;SDS011;21997;47.118;15.346;2023-02-01T16:10:40;0.70;;;0.70;;
35897;SDS011;21997;47.118;15.346;2023-02-01T16:13:07;1.67;;;0.80;;
35897;SDS011;21997;47.118;15.346;2023-02-01T16:15:32;7.00;;;1.00;;
35897;SDS011;21997;47.118;15.346;2023-02-01T16:17:57;0.90;;;0.50;;
35897;SDS011;21997;47.118;15.346;2023-02-01T16:20:23;2.17;;;1.10;;
35897;SDS011;21997;47.118;15.346;2023-02-01T16:22:49;3.07;;;2.13;;
35897;SDS011;21997;47.118;15.346;2023-02-01T16:25:14;3.27;;;1.80;;
35897;SDS011;21997;47.118;15.346;2023-02-01T16:27:39;3.43;;;1.83;;
35897;SDS011;21997;47.118;15.346;2023-02-01T16:30:05;3.47;;;1.73;;
35897;SDS011;21997;47.118;15.346;2023-02-01T16:32:33;2.00;;;1.50;;
35897;SDS011;21997;47.118;15.346;2023-02-01T16:35:03;2.23;;;1.83;;
35897;SDS011;21997;47.118;15.346;2023-02-01T16:37:30;8.37;;;5.07;;
35897;SDS011;21997;47.118;15.346;2023-02-01T16:39:57;11.53;;;7.13;;
35897;SDS011;21997;47.118;15.346;2023-02-01T16:42:23;5.47;;;4.43;;
35897;SDS011;21997;47.118;15.346;2023-02-01T16:44:48;3.80;;;2.70;;
35897;SDS011;21997;47.118;15.346;2023-02-01T16:47:20;2.07;;;1.37;;
35897;SDS011;21997;47.118;15.346;2023-02-01T16:49:47;3.67;;;0.90;;
35897;SDS011;21997;47.118;15.346;2023-02-01T16:52:16;1.10;;;0.90;;
35897;SDS011;21997;47.118;15.346;2023-02-01T16:54:43;1.57;;;0.93;;
35897;SDS011;21997;47.118;15.346;2023-02-01T16:57:13;1.83;;;1.20;;
35897;SDS011;21997;47.118;15.346;2023-02-01T16:59:40;4.53;;;1.73;;
35897;SDS011;21997;47.118;15.346;2023-02-01T17:02:06;2.37;;;0.93;;
35897;SDS011;21997;47.118;15.346;2023-02-01T17:04:38;1.70;;;1.13;;
35897;SDS011;21997;47.118;15.346;2023-02-01T17:07:03;2.23;;;1.60;;
35897;SDS011;21997;47.118;15.346;2023-02-01T17:09:34;1.93;;;1.57;;
35897;SDS011;21997;47.118;15.346;2023-02-01T17:12:01;2.93;;;1.43;;